sensor_id;sensor_type;location;lat;lon;timestamp;P1;durP1;ratioP1;P2;durP2;ratioP2
73321;SDS011;61549;37.044;22.128;2022-11-15T00:00:32;11.40;;;9.60;;
73321;SDS011;61549;37.044;22.128;2022-11-15T00:02:59;11.98;;;10.13;;
73321;SDS011;61549;37.044;22.128;2022-11-15T00:05:26;11.30;;;9.38;;
73321;SDS011;61549;37.044;22.128;2022-11-15T00:07:53;12.82;;;9.57;;
73321;SDS011;61549;37.044;22.128;2022-11-15T00:10:18;12.52;;;9.95;;
73321;SDS011;61549;37.044;22.128;2022-11-15T00:12:44;13.40;;;9.85;;
73321;SDS011;61549;37.044;22.128;2022-11-15T00:15:10;13.10;;;9.70;;
73321;SDS011;61549;37.044;22.128;2022-11-15T00:17:36;12.82;;;9.43;;
73321;SDS011;61549;37.044;22.128;2022-11-15T00:20:02;13.00;;;9.82;;
73321;SDS011;61549;37.044;22.128;2022-11-15T00:22:32;12.02;;;9.60;;
73321;SDS011;61549;37.044;22.128;2022-11-15T00:25:03;13.45;;;9.90;;
73321;SDS011;61549;37.044;22.128;2022-11-15T00:27:29;10.95;;;9.60;;
73321;SDS011;61549;37.044;22.128;2022-11-15T00:29:55;14.15;;;10.07;;
73321;SDS011;61549;37.044;22.128;2022-11-15T00:32:21;12.07;;;10.15;;
73321;SDS011;61549;37.044;22.128;2022-11-15T00:34:47;13.57;;;10.20;;
73321;SDS011;61549;37.044;22.128;2022-11-15T00:37:13;14.30;;;9.93;;
73321;SDS011;61549;37.044;22.128;2022-11-15T00:39:39;12.30;;;9.40;;
73321;SDS011;61549;37.044;22.128;2022-11-15T00:42:04;12.13;;;9.98;;
73321;SDS011;61549;37.044;22.128;2022-11-15T00:44:32;13.30;;;10.45;;
73321;SDS011;61549;37.044;22.128;2022-11-15T00:46:58;11.63;;;10.35;;
73321;SDS011;61549;37.044;22.128;2022-11-15T00:49:24;13.27;;;9.68;;
73321;SDS011;61549;37.044;22.128;2022-11-15T00:51:50;12.40;;;9.90;;
73321;SDS011;61549;37.044;22.128;2022-11-15T00:54:16;11.85;;;9.95;;
73321;SDS011;61549;37.044;22.128;2022-11-15T00:56:42;14.98;;;10.77;;
73321;SDS011;61549;37.044;22.128;2022-11-15T00:59:07;12.10;;;9.63;;
73321;SDS011;61549;37.044;22.128;2022-11-15T01:01:33;12.68;;;9.90;;
73321;SDS011;61549;37.044;22.128;2022-11-15T01:03:59;12.35;;;9.73;;
73321;SDS011;61549;37.044;22.128;2022-11-15T01:06:25;15.18;;;10.18;;
73321;SDS011;61549;37.044;22.128;2022-11-15T01:08:52;12.43;;;10.10;;
73321;SDS011;61549;37.044;22.128;2022-11-15T01:11:17;12.85;;;9.63;;
73321;SDS011;61549;37.044;22.128;2022-11-15T01:13:50;12.02;;;10.15;;
73321;SDS011;61549;37.044;22.128;2022-11-15T01:16:18;12.77;;;9.73;;
73321;SDS011;61549;37.044;22.128;2022-11-15T01:18:44;12.95;;;9.93;;
73321;SDS011;61549;37.044;22.128;2022-11-15T01:21:12;12.35;;;9.63;;
73321;SDS011;61549;37.044;22.128;2022-11-15T01:23:39;12.73;;;9.65;;
73321;SDS011;61549;37.044;22.128;2022-11-15T01:26:06;11.25;;;9.43;;
73321;SDS011;61549;37.044;22.128;2022-11-15T01:28:35;12.95;;;9.90;;
73321;SDS011;61549;37.044;22.128;2022-11-15T01:31:03;12.10;;;9.60;;
73321;SDS011;61549;37.044;22.128;2022-11-15T01:33:33;11.05;;;9.20;;
73321;SDS011;61549;37.044;22.128;2022-11-15T01:36:03;12.20;;;9.70;;
73321;SDS011;61549;37.044;22.128;2022-11-15T01:38:30;12.38;;;9.27;;
73321;SDS011;61549;37.044;22.128;2022-11-15T01:40:56;12.13;;;9.75;;
73321;SDS011;61549;37.044;22.128;2022-11-15T01:43:24;11.38;;;8.98;;
73321;SDS011;61549;37.044;22.128;2022-11-15T01:46:02;11.13;;;9.40;;
73321;SDS011;61549;37.044;22.128;2022-11-15T01:48:44;12.77;;;9.60;;
73321;SDS011;61549;37.044;22.128;2022-11-15T01:51:11;11.30;;;9.57;;
73321;SDS011;61549;37.044;22.128;2022-11-15T01:53:39;9.95;;;8.35;;
73321;SDS011;61549;37.044;22.128;2022-11-15T01:56:09;12.90;;;9.18;;
73321;SDS011;61549;37.044;22.128;2022-11-15T01:58:39;11.60;;;9.45;;
73321;SDS011;61549;37.044;22.128;2022-11-15T02:01:07;12.45;;;9.25;;
73321;SDS011;61549;37.044;22.128;2022-11-15T02:03:35;10.20;;;8.77;;
73321;SDS011;61549;37.044;22.128;2022-11-15T02:06:23;11.65;;;9.27;;
73321;SDS011;61549;37.044;22.128;2022-11-15T02:08:49;9.57;;;8.40;;
73321;SDS011;61549;37.044;22.128;2022-11-15T02:11:15;11.98;;;8.77;;
73321;SDS011;61549;37.044;22.128;2022-11-15T02:13:41;11.93;;;8.50;;
73321;SDS011;61549;37.044;22.128;2022-11-15T02:36:42;11.77;;;9.52;;
73321;SDS011;61549;37.044;22.128;2022-11-15T02:39:03;11.93;;;9.23;;
73321;SDS011;61549;37.044;22.128;2022-11-15T02:46:35;13.60;;;10.00;;
73321;SDS011;61549;37.044;22.128;2022-11-15T02:49:23;11.73;;;9.43;;
73321;SDS011;61549;37.044;22.128;2022-11-15T02:51:54;11.95;;;9.48;;
73321;SDS011;61549;37.044;22.128;2022-11-15T02:54:21;12.80;;;10.05;;
73321;SDS011;61549;37.044;22.128;2022-11-15T02:56:49;13.82;;;9.68;;
73321;SDS011;61549;37.044;22.128;2022-11-15T03:09:34;9.98;;;8.07;;
73321;SDS011;61549;37.044;22.128;2022-11-15T03:12:12;8.75;;;7.25;;
73321;SDS011;61549;37.044;22.128;2022-11-15T03:20:19;9.40;;;8.05;;
73321;SDS011;61549;37.044;22.128;2022-11-15T03:22:45;10.98;;;8.30;;
73321;SDS011;61549;37.044;22.128;2022-11-15T03:25:19;10.38;;;8.18;;
73321;SDS011;61549;37.044;22.128;2022-11-15T03:27:49;10.07;;;7.83;;
73321;SDS011;61549;37.044;22.128;2022-11-15T03:30:17;10.70;;;7.97;;
73321;SDS011;61549;37.044;22.128;2022-11-15T03:32:47;10.13;;;7.85;;
73321;SDS011;61549;37.044;22.128;2022-11-15T03:35:24;9.10;;;7.32;;
73321;SDS011;61549;37.044;22.128;2022-11-15T03:40:58;7.60;;;6.80;;
73321;SDS011;61549;37.044;22.128;2022-11-15T03:43:39;9.88;;;6.80;;
73321;SDS011;61549;37.044;22.128;2022-11-15T03:46:19;7.95;;;6.53;;
73321;SDS011;61549;37.044;22.128;2022-11-15T03:49:11;8.07;;;6.65;;
73321;SDS011;61549;37.044;22.128;2022-11-15T03:51:50;11.80;;;7.40;;
73321;SDS011;61549;37.044;22.128;2022-11-15T03:54:16;8.65;;;7.15;;
73321;SDS011;61549;37.044;22.128;2022-11-15T03:56:42;8.70;;;7.50;;
73321;SDS011;61549;37.044;22.128;2022-11-15T03:59:08;8.85;;;7.47;;
73321;SDS011;61549;37.044;22.128;2022-11-15T04:01:34;8.90;;;7.15;;
73321;SDS011;61549;37.044;22.128;2022-11-15T04:04:00;8.73;;;7.40;;
73321;SDS011;61549;37.044;22.128;2022-11-15T04:06:26;8.68;;;7.75;;
73321;SDS011;61549;37.044;22.128;2022-11-15T04:08:52;10.70;;;8.05;;
73321;SDS011;61549;37.044;22.128;2022-11-15T04:11:18;12.05;;;7.82;;
73321;SDS011;61549;37.044;22.128;2022-11-15T04:13:43;13.32;;;8.70;;
73321;SDS011;61549;37.044;22.128;2022-11-15T04:16:09;10.00;;;8.10;;
73321;SDS011;61549;37.044;22.128;2022-11-15T04:18:35;11.38;;;8.50;;
73321;SDS011;61549;37.044;22.128;2022-11-15T04:21:01;10.43;;;8.52;;
73321;SDS011;61549;37.044;22.128;2022-11-15T04:23:45;11.25;;;8.45;;
73321;SDS011;61549;37.044;22.128;2022-11-15T04:26:31;11.30;;;8.82;;
73321;SDS011;61549;37.044;22.128;2022-11-15T04:28:58;12.13;;;8.98;;
73321;SDS011;61549;37.044;22.128;2022-11-15T04:31:42;12.20;;;9.48;;
73321;SDS011;61549;37.044;22.128;2022-11-15T04:34:08;11.88;;;9.23;;
73321;SDS011;61549;37.044;22.128;2022-11-15T04:36:34;12.07;;;9.35;;
73321;SDS011;61549;37.044;22.128;2022-11-15T04:39:19;12.10;;;9.93;;
73321;SDS011;61549;37.044;22.128;2022-11-15T04:41:44;11.85;;;10.00;;
73321;SDS011;61549;37.044;22.128;2022-11-15T04:44:10;12.77;;;9.75;;
73321;SDS011;61549;37.044;22.128;2022-11-15T04:46:36;10.95;;;8.63;;
73321;SDS011;61549;37.044;22.128;2022-11-15T04:49:04;11.27;;;8.80;;
73321;SDS011;61549;37.044;22.128;2022-11-15T04:51:30;12.40;;;8.75;;
73321;SDS011;61549;37.044;22.128;2022-11-15T04:53:56;12.38;;;8.48;;
73321;SDS011;61549;37.044;22.128;2022-11-15T04:56:22;9.75;;;7.95;;
73321;SDS011;61549;37.044;22.128;2022-11-15T04:58:50;13.27;;;8.15;;
73321;SDS011;61549;37.044;22.128;2022-11-15T05:01:16;9.48;;;7.70;;
73321;SDS011;61549;37.044;22.128;2022-11-15T05:03:43;9.35;;;7.70;;
73321;SDS011;61549;37.044;22.128;2022-11-15T05:06:28;9.50;;;7.45;;
73321;SDS011;61549;37.044;22.128;2022-11-15T05:08:56;11.07;;;7.70;;
73321;SDS011;61549;37.044;22.128;2022-11-15T05:11:22;9.05;;;7.88;;
73321;SDS011;61549;37.044;22.128;2022-11-15T05:13:49;9.18;;;7.80;;
73321;SDS011;61549;37.044;22.128;2022-11-15T05:16:15;10.02;;;7.88;;
73321;SDS011;61549;37.044;22.128;2022-11-15T05:18:41;9.48;;;7.63;;
73321;SDS011;61549;37.044;22.128;2022-11-15T05:21:09;9.13;;;7.38;;
73321;SDS011;61549;37.044;22.128;2022-11-15T05:23:36;9.95;;;8.40;;
73321;SDS011;61549;37.044;22.128;2022-11-15T05:26:03;10.35;;;7.75;;
73321;SDS011;61549;37.044;22.128;2022-11-15T05:28:30;10.50;;;8.20;;
73321;SDS011;61549;37.044;22.128;2022-11-15T05:33:30;11.27;;;7.97;;
73321;SDS011;61549;37.044;22.128;2022-11-15T05:36:18;9.13;;;7.80;;
73321;SDS011;61549;37.044;22.128;2022-11-15T05:38:51;10.90;;;8.10;;
73321;SDS011;61549;37.044;22.128;2022-11-15T05:41:18;9.95;;;8.27;;
73321;SDS011;61549;37.044;22.128;2022-11-15T05:43:47;12.48;;;8.90;;
73321;SDS011;61549;37.044;22.128;2022-11-15T05:46:15;10.60;;;8.20;;
73321;SDS011;61549;37.044;22.128;2022-11-15T05:48:43;11.15;;;8.40;;
73321;SDS011;61549;37.044;22.128;2022-11-15T05:51:13;10.57;;;8.18;;
73321;SDS011;61549;37.044;22.128;2022-11-15T05:53:41;11.13;;;8.30;;
73321;SDS011;61549;37.044;22.128;2022-11-15T05:56:08;10.63;;;8.43;;
73321;SDS011;61549;37.044;22.128;2022-11-15T05:59:15;9.90;;;7.97;;
73321;SDS011;61549;37.044;22.128;2022-11-15T06:02:38;9.38;;;7.88;;
73321;SDS011;61549;37.044;22.128;2022-11-15T06:05:04;11.55;;;7.90;;
73321;SDS011;61549;37.044;22.128;2022-11-15T06:07:30;11.07;;;8.20;;
73321;SDS011;61549;37.044;22.128;2022-11-15T06:09:56;10.90;;;8.63;;
73321;SDS011;61549;37.044;22.128;2022-11-15T06:12:23;11.93;;;8.60;;
73321;SDS011;61549;37.044;22.128;2022-11-15T06:14:49;12.30;;;8.82;;
73321;SDS011;61549;37.044;22.128;2022-11-15T06:17:14;12.65;;;8.55;;
73321;SDS011;61549;37.044;22.128;2022-11-15T06:19:40;9.90;;;8.30;;
73321;SDS011;61549;37.044;22.128;2022-11-15T06:22:06;11.90;;;8.15;;
73321;SDS011;61549;37.044;22.128;2022-11-15T06:24:32;10.85;;;7.60;;
73321;SDS011;61549;37.044;22.128;2022-11-15T06:26:59;10.55;;;7.60;;
73321;SDS011;61549;37.044;22.128;2022-11-15T06:29:25;9.27;;;7.65;;
73321;SDS011;61549;37.044;22.128;2022-11-15T06:31:51;11.07;;;8.52;;
73321;SDS011;61549;37.044;22.128;2022-11-15T06:34:18;12.73;;;8.68;;
73321;SDS011;61549;37.044;22.128;2022-11-15T06:36:44;12.77;;;8.73;;
73321;SDS011;61549;37.044;22.128;2022-11-15T06:39:10;11.30;;;7.95;;
73321;SDS011;61549;37.044;22.128;2022-11-15T06:41:36;10.18;;;8.00;;
73321;SDS011;61549;37.044;22.128;2022-11-15T06:44:02;11.77;;;7.38;;
73321;SDS011;61549;37.044;22.128;2022-11-15T06:46:28;11.02;;;7.65;;
73321;SDS011;61549;37.044;22.128;2022-11-15T06:48:54;10.52;;;9.00;;
73321;SDS011;61549;37.044;22.128;2022-11-15T06:51:20;12.85;;;10.73;;
73321;SDS011;61549;37.044;22.128;2022-11-15T06:53:46;16.67;;;12.20;;
73321;SDS011;61549;37.044;22.128;2022-11-15T06:56:12;17.90;;;13.10;;
73321;SDS011;61549;37.044;22.128;2022-11-15T06:58:38;17.15;;;13.82;;
73321;SDS011;61549;37.044;22.128;2022-11-15T07:01:06;21.20;;;18.30;;
73321;SDS011;61549;37.044;22.128;2022-11-15T07:03:34;23.98;;;18.38;;
73321;SDS011;61549;37.044;22.128;2022-11-15T07:06:01;18.75;;;15.30;;
73321;SDS011;61549;37.044;22.128;2022-11-15T07:08:27;21.33;;;17.48;;
73321;SDS011;61549;37.044;22.128;2022-11-15T07:10:54;21.63;;;17.77;;
73321;SDS011;61549;37.044;22.128;2022-11-15T07:13:25;23.10;;;19.98;;
73321;SDS011;61549;37.044;22.128;2022-11-15T07:15:51;21.38;;;17.38;;
73321;SDS011;61549;37.044;22.128;2022-11-15T07:18:18;17.85;;;15.77;;
73321;SDS011;61549;37.044;22.128;2022-11-15T07:20:44;17.73;;;15.77;;
73321;SDS011;61549;37.044;22.128;2022-11-15T07:23:10;17.15;;;14.32;;
73321;SDS011;61549;37.044;22.128;2022-11-15T07:25:35;23.63;;;18.80;;
73321;SDS011;61549;37.044;22.128;2022-11-15T07:28:01;38.03;;;25.92;;
73321;SDS011;61549;37.044;22.128;2022-11-15T07:30:28;46.50;;;34.45;;
73321;SDS011;61549;37.044;22.128;2022-11-15T07:35:24;31.50;;;23.52;;
73321;SDS011;61549;37.044;22.128;2022-11-15T07:37:54;29.08;;;23.75;;
73321;SDS011;61549;37.044;22.128;2022-11-15T07:40:21;30.88;;;25.23;;
73321;SDS011;61549;37.044;22.128;2022-11-15T07:42:46;29.33;;;24.35;;
73321;SDS011;61549;37.044;22.128;2022-11-15T07:45:19;28.27;;;22.27;;
73321;SDS011;61549;37.044;22.128;2022-11-15T07:47:46;30.40;;;25.00;;
73321;SDS011;61549;37.044;22.128;2022-11-15T07:50:12;94.57;;;67.07;;
73321;SDS011;61549;37.044;22.128;2022-11-15T07:52:39;61.17;;;45.20;;
73321;SDS011;61549;37.044;22.128;2022-11-15T07:55:05;69.00;;;53.90;;
73321;SDS011;61549;37.044;22.128;2022-11-15T07:57:31;68.90;;;51.92;;
73321;SDS011;61549;37.044;22.128;2022-11-15T07:59:57;54.33;;;44.53;;
73321;SDS011;61549;37.044;22.128;2022-11-15T08:02:23;43.25;;;35.70;;
73321;SDS011;61549;37.044;22.128;2022-11-15T08:04:49;41.30;;;33.03;;
73321;SDS011;61549;37.044;22.128;2022-11-15T08:07:15;49.45;;;41.80;;
73321;SDS011;61549;37.044;22.128;2022-11-15T08:09:41;38.30;;;32.30;;
73321;SDS011;61549;37.044;22.128;2022-11-15T08:12:07;29.58;;;23.88;;
73321;SDS011;61549;37.044;22.128;2022-11-15T08:14:34;24.52;;;20.98;;
73321;SDS011;61549;37.044;22.128;2022-11-15T08:17:01;23.25;;;19.13;;
73321;SDS011;61549;37.044;22.128;2022-11-15T08:19:27;22.83;;;19.55;;
73321;SDS011;61549;37.044;22.128;2022-11-15T08:21:53;24.13;;;19.40;;
73321;SDS011;61549;37.044;22.128;2022-11-15T08:24:20;21.10;;;18.15;;
73321;SDS011;61549;37.044;22.128;2022-11-15T08:26:46;23.63;;;19.58;;
73321;SDS011;61549;37.044;22.128;2022-11-15T08:29:12;25.95;;;19.52;;
73321;SDS011;61549;37.044;22.128;2022-11-15T08:31:37;23.55;;;20.08;;
73321;SDS011;61549;37.044;22.128;2022-11-15T08:34:04;21.38;;;17.92;;
73321;SDS011;61549;37.044;22.128;2022-11-15T08:36:31;20.05;;;17.13;;
73321;SDS011;61549;37.044;22.128;2022-11-15T08:38:57;20.73;;;15.50;;
73321;SDS011;61549;37.044;22.128;2022-11-15T08:41:27;17.67;;;15.27;;
73321;SDS011;61549;37.044;22.128;2022-11-15T08:43:55;17.40;;;15.25;;
73321;SDS011;61549;37.044;22.128;2022-11-15T08:46:21;43.50;;;35.08;;
73321;SDS011;61549;37.044;22.128;2022-11-15T08:48:48;36.50;;;29.08;;
73321;SDS011;61549;37.044;22.128;2022-11-15T08:51:14;27.25;;;23.50;;
73321;SDS011;61549;37.044;22.128;2022-11-15T08:53:41;19.15;;;16.13;;
73321;SDS011;61549;37.044;22.128;2022-11-15T08:56:08;23.48;;;19.98;;
73321;SDS011;61549;37.044;22.128;2022-11-15T08:58:35;25.85;;;20.95;;
73321;SDS011;61549;37.044;22.128;2022-11-15T09:01:01;20.33;;;16.90;;
73321;SDS011;61549;37.044;22.128;2022-11-15T09:03:28;16.90;;;15.10;;
73321;SDS011;61549;37.044;22.128;2022-11-15T09:05:55;12.77;;;10.82;;
73321;SDS011;61549;37.044;22.128;2022-11-15T09:08:24;14.63;;;12.60;;
73321;SDS011;61549;37.044;22.128;2022-11-15T09:10:54;16.85;;;12.32;;
73321;SDS011;61549;37.044;22.128;2022-11-15T09:13:21;15.65;;;13.35;;
73321;SDS011;61549;37.044;22.128;2022-11-15T09:15:47;16.35;;;13.82;;
73321;SDS011;61549;37.044;22.128;2022-11-15T09:18:13;13.57;;;11.95;;
73321;SDS011;61549;37.044;22.128;2022-11-15T09:20:39;12.57;;;11.27;;
73321;SDS011;61549;37.044;22.128;2022-11-15T09:23:05;14.35;;;12.52;;
73321;SDS011;61549;37.044;22.128;2022-11-15T09:25:31;15.00;;;11.77;;
73321;SDS011;61549;37.044;22.128;2022-11-15T09:27:57;11.60;;;10.35;;
73321;SDS011;61549;37.044;22.128;2022-11-15T09:30:23;14.40;;;12.27;;
73321;SDS011;61549;37.044;22.128;2022-11-15T09:32:50;16.05;;;13.30;;
73321;SDS011;61549;37.044;22.128;2022-11-15T09:35:16;12.73;;;11.43;;
73321;SDS011;61549;37.044;22.128;2022-11-15T09:37:42;13.63;;;11.40;;
73321;SDS011;61549;37.044;22.128;2022-11-15T09:40:09;17.30;;;14.20;;
73321;SDS011;61549;37.044;22.128;2022-11-15T09:51:25;15.68;;;14.07;;
73321;SDS011;61549;37.044;22.128;2022-11-15T09:56:56;17.17;;;15.38;;
73321;SDS011;61549;37.044;22.128;2022-11-15T09:59:39;17.10;;;15.32;;
73321;SDS011;61549;37.044;22.128;2022-11-15T10:04:45;17.88;;;16.00;;
73321;SDS011;61549;37.044;22.128;2022-11-15T10:07:34;17.23;;;13.65;;
73321;SDS011;61549;37.044;22.128;2022-11-15T10:12:48;16.42;;;13.32;;
73321;SDS011;61549;37.044;22.128;2022-11-15T10:15:17;12.57;;;9.75;;
73321;SDS011;61549;37.044;22.128;2022-11-15T10:20:51;13.45;;;11.95;;
73321;SDS011;61549;37.044;22.128;2022-11-15T10:23:21;12.02;;;10.70;;
73321;SDS011;61549;37.044;22.128;2022-11-15T10:25:50;11.88;;;8.68;;
73321;SDS011;61549;37.044;22.128;2022-11-15T10:30:54;9.43;;;8.50;;
73321;SDS011;61549;37.044;22.128;2022-11-15T10:33:35;9.55;;;8.55;;
73321;SDS011;61549;37.044;22.128;2022-11-15T10:41:20;9.90;;;8.70;;
73321;SDS011;61549;37.044;22.128;2022-11-15T10:44:02;9.98;;;8.02;;
73321;SDS011;61549;37.044;22.128;2022-11-15T10:46:34;9.30;;;8.30;;
73321;SDS011;61549;37.044;22.128;2022-11-15T10:49:52;9.23;;;8.32;;
73321;SDS011;61549;37.044;22.128;2022-11-15T10:51:56;10.75;;;9.13;;
73321;SDS011;61549;37.044;22.128;2022-11-15T10:54:47;9.38;;;8.38;;
73321;SDS011;61549;37.044;22.128;2022-11-15T10:57:21;12.23;;;10.93;;
73321;SDS011;61549;37.044;22.128;2022-11-15T10:59:51;11.23;;;10.13;;
73321;SDS011;61549;37.044;22.128;2022-11-15T11:02:32;10.32;;;8.98;;
73321;SDS011;61549;37.044;22.128;2022-11-15T11:04:59;10.77;;;9.38;;
73321;SDS011;61549;37.044;22.128;2022-11-15T11:07:30;10.23;;;8.27;;
73321;SDS011;61549;37.044;22.128;2022-11-15T11:10:05;11.60;;;10.40;;
73321;SDS011;61549;37.044;22.128;2022-11-15T11:15:10;10.73;;;9.50;;
73321;SDS011;61549;37.044;22.128;2022-11-15T11:20:30;10.77;;;8.95;;
73321;SDS011;61549;37.044;22.128;2022-11-15T11:28:51;8.68;;;7.85;;
73321;SDS011;61549;37.044;22.128;2022-11-15T11:31:22;10.25;;;8.57;;
73321;SDS011;61549;37.044;22.128;2022-11-15T11:36:54;10.43;;;8.18;;
73321;SDS011;61549;37.044;22.128;2022-11-15T11:45:18;10.35;;;8.52;;
73321;SDS011;61549;37.044;22.128;2022-11-15T11:50:38;10.10;;;8.32;;
73321;SDS011;61549;37.044;22.128;2022-11-15T11:55:54;10.13;;;8.68;;
73321;SDS011;61549;37.044;22.128;2022-11-15T11:58:33;12.57;;;8.90;;
73321;SDS011;61549;37.044;22.128;2022-11-15T12:01:13;9.57;;;7.18;;
73321;SDS011;61549;37.044;22.128;2022-11-15T12:03:41;9.00;;;7.28;;
73321;SDS011;61549;37.044;22.128;2022-11-15T12:15:20;7.85;;;5.80;;
73321;SDS011;61549;37.044;22.128;2022-11-15T12:17:49;10.48;;;7.03;;
73321;SDS011;61549;37.044;22.128;2022-11-15T12:20:30;7.78;;;6.75;;
73321;SDS011;61549;37.044;22.128;2022-11-15T12:26:04;7.63;;;6.85;;
73321;SDS011;61549;37.044;22.128;2022-11-15T12:28:58;7.10;;;6.40;;
73321;SDS011;61549;37.044;22.128;2022-11-15T12:36:45;7.43;;;6.68;;
73321;SDS011;61549;37.044;22.128;2022-11-15T12:39:13;8.75;;;7.30;;
73321;SDS011;61549;37.044;22.128;2022-11-15T12:41:42;7.53;;;6.72;;
73321;SDS011;61549;37.044;22.128;2022-11-15T13:02:22;6.95;;;5.15;;
73321;SDS011;61549;37.044;22.128;2022-11-15T13:05:19;6.45;;;5.78;;
73321;SDS011;61549;37.044;22.128;2022-11-15T13:10:31;7.10;;;6.30;;
73321;SDS011;61549;37.044;22.128;2022-11-15T13:13:02;7.80;;;5.95;;
73321;SDS011;61549;37.044;22.128;2022-11-15T13:15:37;8.88;;;7.32;;
73321;SDS011;61549;37.044;22.128;2022-11-15T13:21:00;6.93;;;6.05;;
73321;SDS011;61549;37.044;22.128;2022-11-15T13:23:51;7.45;;;6.18;;
73321;SDS011;61549;37.044;22.128;2022-11-15T13:26:21;6.68;;;5.60;;
73321;SDS011;61549;37.044;22.128;2022-11-15T13:28:48;6.75;;;6.05;;
73321;SDS011;61549;37.044;22.128;2022-11-15T13:33:56;8.27;;;6.60;;
73321;SDS011;61549;37.044;22.128;2022-11-15T13:36:31;10.30;;;7.15;;
73321;SDS011;61549;37.044;22.128;2022-11-15T13:39:00;10.32;;;7.22;;
73321;SDS011;61549;37.044;22.128;2022-11-15T13:41:34;10.02;;;6.88;;
73321;SDS011;61549;37.044;22.128;2022-11-15T13:44:02;8.43;;;6.70;;
73321;SDS011;61549;37.044;22.128;2022-11-15T13:46:30;8.75;;;6.50;;
73321;SDS011;61549;37.044;22.128;2022-11-15T13:49:01;7.53;;;6.55;;
73321;SDS011;61549;37.044;22.128;2022-11-15T13:51:37;9.32;;;6.68;;
73321;SDS011;61549;37.044;22.128;2022-11-15T13:54:28;7.28;;;6.30;;
73321;SDS011;61549;37.044;22.128;2022-11-15T13:57:01;7.28;;;6.40;;
73321;SDS011;61549;37.044;22.128;2022-11-15T13:59:36;7.25;;;6.20;;
73321;SDS011;61549;37.044;22.128;2022-11-15T14:02:12;7.40;;;6.10;;
73321;SDS011;61549;37.044;22.128;2022-11-15T14:04:53;7.22;;;6.50;;
73321;SDS011;61549;37.044;22.128;2022-11-15T14:07:24;7.68;;;6.63;;
73321;SDS011;61549;37.044;22.128;2022-11-15T14:09:52;6.93;;;6.00;;
73321;SDS011;61549;37.044;22.128;2022-11-15T14:14:56;7.47;;;6.63;;
73321;SDS011;61549;37.044;22.128;2022-11-15T14:19:55;7.88;;;6.43;;
73321;SDS011;61549;37.044;22.128;2022-11-15T14:22:27;7.68;;;6.10;;
73321;SDS011;61549;37.044;22.128;2022-11-15T14:25:14;7.78;;;6.70;;
73321;SDS011;61549;37.044;22.128;2022-11-15T14:30:34;8.75;;;6.88;;
73321;SDS011;61549;37.044;22.128;2022-11-15T14:33:00;9.10;;;7.15;;
73321;SDS011;61549;37.044;22.128;2022-11-15T14:35:27;10.55;;;7.38;;
73321;SDS011;61549;37.044;22.128;2022-11-15T14:37:53;10.00;;;7.10;;
73321;SDS011;61549;37.044;22.128;2022-11-15T14:40:20;9.20;;;7.57;;
73321;SDS011;61549;37.044;22.128;2022-11-15T14:42:48;8.40;;;7.47;;
73321;SDS011;61549;37.044;22.128;2022-11-15T14:45:16;8.02;;;7.20;;
73321;SDS011;61549;37.044;22.128;2022-11-15T14:47:45;8.73;;;7.60;;
73321;SDS011;61549;37.044;22.128;2022-11-15T14:50:12;9.10;;;7.60;;
73321;SDS011;61549;37.044;22.128;2022-11-15T14:52:40;7.90;;;7.10;;
73321;SDS011;61549;37.044;22.128;2022-11-15T14:55:24;11.60;;;8.35;;
73321;SDS011;61549;37.044;22.128;2022-11-15T14:57:53;11.73;;;9.05;;
73321;SDS011;61549;37.044;22.128;2022-11-15T15:02:49;9.88;;;8.23;;
73321;SDS011;61549;37.044;22.128;2022-11-15T15:07:51;12.10;;;9.23;;
73321;SDS011;61549;37.044;22.128;2022-11-15T15:10:20;12.23;;;9.27;;
73321;SDS011;61549;37.044;22.128;2022-11-15T15:12:47;11.10;;;9.35;;
73321;SDS011;61549;37.044;22.128;2022-11-15T15:15:14;12.73;;;8.80;;
73321;SDS011;61549;37.044;22.128;2022-11-15T15:17:46;13.43;;;10.27;;
73321;SDS011;61549;37.044;22.128;2022-11-15T15:20:13;13.88;;;10.52;;
73321;SDS011;61549;37.044;22.128;2022-11-15T15:22:40;14.90;;;10.40;;
73321;SDS011;61549;37.044;22.128;2022-11-15T15:25:15;13.90;;;10.75;;
73321;SDS011;61549;37.044;22.128;2022-11-15T15:28:00;15.35;;;10.50;;
73321;SDS011;61549;37.044;22.128;2022-11-15T15:30:27;14.50;;;10.38;;
73321;SDS011;61549;37.044;22.128;2022-11-15T15:32:54;15.13;;;10.60;;
73321;SDS011;61549;37.044;22.128;2022-11-15T15:35:20;14.13;;;11.05;;
73321;SDS011;61549;37.044;22.128;2022-11-15T15:37:48;16.50;;;12.38;;
73321;SDS011;61549;37.044;22.128;2022-11-15T15:40:22;14.93;;;11.73;;
73321;SDS011;61549;37.044;22.128;2022-11-15T15:42:49;16.70;;;11.70;;
73321;SDS011;61549;37.044;22.128;2022-11-15T15:45:16;14.93;;;12.10;;
73321;SDS011;61549;37.044;22.128;2022-11-15T15:47:43;15.65;;;13.05;;
73321;SDS011;61549;37.044;22.128;2022-11-15T15:50:32;15.02;;;12.65;;
73321;SDS011;61549;37.044;22.128;2022-11-15T15:52:59;16.33;;;13.82;;
73321;SDS011;61549;37.044;22.128;2022-11-15T15:55:27;17.02;;;13.25;;
73321;SDS011;61549;37.044;22.128;2022-11-15T15:57:59;18.50;;;13.30;;
73321;SDS011;61549;37.044;22.128;2022-11-15T16:00:25;15.05;;;13.40;;
73321;SDS011;61549;37.044;22.128;2022-11-15T16:02:51;16.65;;;13.45;;
73321;SDS011;61549;37.044;22.128;2022-11-15T16:05:18;14.40;;;12.77;;
73321;SDS011;61549;37.044;22.128;2022-11-15T16:07:44;17.98;;;13.15;;
73321;SDS011;61549;37.044;22.128;2022-11-15T16:10:26;15.52;;;12.50;;
73321;SDS011;61549;37.044;22.128;2022-11-15T16:12:55;16.90;;;13.85;;
73321;SDS011;61549;37.044;22.128;2022-11-15T16:15:22;18.40;;;13.73;;
73321;SDS011;61549;37.044;22.128;2022-11-15T16:17:51;17.80;;;13.50;;
73321;SDS011;61549;37.044;22.128;2022-11-15T16:22:48;17.38;;;14.20;;
73321;SDS011;61549;37.044;22.128;2022-11-15T16:25:14;15.20;;;12.40;;
73321;SDS011;61549;37.044;22.128;2022-11-15T16:27:40;15.20;;;12.68;;
73321;SDS011;61549;37.044;22.128;2022-11-15T16:30:17;14.75;;;11.48;;
73321;SDS011;61549;37.044;22.128;2022-11-15T16:32:45;13.55;;;11.15;;
73321;SDS011;61549;37.044;22.128;2022-11-15T16:35:12;14.82;;;12.02;;
73321;SDS011;61549;37.044;22.128;2022-11-15T16:37:41;14.20;;;11.45;;
73321;SDS011;61549;37.044;22.128;2022-11-15T16:42:51;17.73;;;12.68;;
73321;SDS011;61549;37.044;22.128;2022-11-15T16:45:17;16.08;;;12.82;;
73321;SDS011;61549;37.044;22.128;2022-11-15T16:47:43;15.38;;;12.75;;
73321;SDS011;61549;37.044;22.128;2022-11-15T16:50:26;15.27;;;12.10;;
73321;SDS011;61549;37.044;22.128;2022-11-15T16:52:54;15.05;;;12.40;;
73321;SDS011;61549;37.044;22.128;2022-11-15T16:55:22;19.25;;;13.05;;
73321;SDS011;61549;37.044;22.128;2022-11-15T16:57:49;15.23;;;11.88;;
73321;SDS011;61549;37.044;22.128;2022-11-15T17:00:16;14.23;;;12.13;;
73321;SDS011;61549;37.044;22.128;2022-11-15T17:02:44;13.73;;;11.75;;
73321;SDS011;61549;37.044;22.128;2022-11-15T17:05:11;13.43;;;12.02;;
73321;SDS011;61549;37.044;22.128;2022-11-15T17:07:38;12.77;;;11.15;;
73321;SDS011;61549;37.044;22.128;2022-11-15T17:10:16;13.45;;;10.82;;
73321;SDS011;61549;37.044;22.128;2022-11-15T17:12:42;12.13;;;10.15;;
73321;SDS011;61549;37.044;22.128;2022-11-15T17:15:10;11.60;;;10.02;;
73321;SDS011;61549;37.044;22.128;2022-11-15T17:17:43;12.90;;;9.25;;